Terminal Aerodrome Forecast
Issued by NWS Louisville, KY

Home | Current Version | Previous Version | Text Only | Print | Product List | Glossary On
Versions: 1 2 3 4 5 6 7 8 9 10 11 12 13 14 15 16
000
FTUS43 KLMK 241127
TAFLEX
TAF
KLEX 241127Z 2412/2512 14004KT P6SM SCT150
     FM241500 11008KT 4SM SHRA BR BKN035
     FM241700 11010KT 4SM SHRA BR VCTS BKN015CB
      TEMPO 2418/2422 1SM -TSRA BR BKN012CB
     FM250100 22015KT P6SM VCSH OVC011=

USA.gov is the U.S. government's official web portal to all federal, state and local government web resources and services.